createdAt,value
2019-05-25T00:02:01.651Z,93395.30
2019-05-25T00:04:31.457Z,93400.63
2019-05-25T00:07:01.253Z,93426.02
2019-05-25T00:09:31.076Z,93468.19
2019-05-25T00:12:03.650Z,93494.31
2019-05-25T00:14:34.145Z,93502.61
2019-05-25T00:17:03.884Z,93496.88
2019-05-25T00:19:33.642Z,93501.70
2019-05-25T00:22:03.405Z,93506.36
2019-05-25T00:24:33.274Z,93508.73
2019-05-25T00:27:02.770Z,93514.11
2019-05-25T00:29:32.531Z,93507.62
2019-05-25T00:32:04.592Z,93512.44
2019-05-25T00:34:34.464Z,93535.14
2019-05-25T00:37:04.300Z,93545.36
2019-05-25T00:39:34.033Z,93560.47
2019-05-25T00:42:03.801Z,93567.24
2019-05-25T00:44:33.603Z,93580.45
2019-05-25T00:47:03.199Z,93598.41
2019-05-25T00:49:32.953Z,93611.11
2019-05-25T00:52:02.754Z,93618.31
2019-05-25T00:54:32.531Z,93633.70
2019-05-25T00:57:02.212Z,93639.05
2019-05-25T00:59:31.980Z,93616.22
2019-05-25T01:02:01.792Z,93640.14
2019-05-25T01:04:31.564Z,93628.68
2019-05-25T01:07:01.258Z,93663.95
2019-05-25T01:09:31.030Z,93672.66
2019-05-25T01:12:00.782Z,93667.04
2019-05-25T01:14:30.572Z,93665.83
2019-05-25T01:17:00.659Z,93657.05
2019-05-25T01:19:30.484Z,93663.34
2019-05-25T01:22:00.154Z,93658.83
2019-05-25T01:24:43.335Z,93662.77
2019-05-25T01:27:01.561Z,93667.04
2019-05-25T01:29:31.318Z,93660.09
2019-05-25T01:32:01.096Z,93659.36
2019-05-25T01:34:30.853Z,93668.20
2019-05-25T01:37:00.663Z,93669.56
2019-05-25T01:39:30.317Z,93667.28
2019-05-25T01:42:00.053Z,93678.06
2019-05-25T01:44:29.830Z,93676.27
2019-05-25T01:47:02.014Z,93685.19
2019-05-25T01:49:31.803Z,93686.67
2019-05-25T01:52:01.468Z,93684.22
2019-05-25T01:54:31.213Z,93684.22
2019-05-25T01:57:00.988Z,93680.28
2019-05-25T01:59:30.645Z,93691.30
2019-05-25T02:02:00.489Z,93681.52
2019-05-25T02:04:30.231Z,93689.27
2019-05-25T02:06:59.974Z,93688.17
2019-05-25T02:09:29.747Z,93693.06
2019-05-25T02:11:59.973Z,93696.27
2019-05-25T02:14:29.744Z,93688.77
2019-05-25T02:16:59.595Z,93692.72
2019-05-25T02:19:29.356Z,93688.77
2019-05-25T02:21:59.136Z,93697.23
2019-05-25T02:24:28.869Z,93699.23
2019-05-25T02:26:58.893Z,93699.40
2019-05-25T02:29:28.577Z,93702.47
2019-05-25T02:32:00.777Z,93697.08
2019-05-25T02:34:30.568Z,93703.18
2019-05-25T02:37:00.641Z,93700.88
2019-05-25T02:39:30.478Z,93688.45
2019-05-25T02:42:00.276Z,93690.08
2019-05-25T02:44:30.357Z,93698.95
2019-05-25T02:47:01.638Z,93696.27
2019-05-25T02:49:31.483Z,93702.64
2019-05-25T02:52:01.243Z,93703.42
2019-05-25T02:54:30.985Z,93693.81
2019-05-25T02:57:00.766Z,93694.72
2019-05-25T02:59:30.535Z,93686.50
2019-05-25T03:02:00.373Z,93687.97
2019-05-25T03:04:30.079Z,93687.39
2019-05-25T03:07:00.116Z,93674.50
2019-05-25T03:09:32.856Z,93670.05
2019-05-25T03:12:02.395Z,93667.34
2019-05-25T03:14:32.089Z,93661.39
2019-05-25T03:17:01.884Z,93637.23
2019-05-25T03:19:31.654Z,93653.41
2019-05-25T03:22:01.417Z,93640.41
2019-05-25T03:24:31.173Z,93651.17
2019-05-25T03:27:00.788Z,93654.58
2019-05-25T03:29:30.554Z,93668.31
2019-05-25T03:32:00.337Z,93671.11
2019-05-25T03:34:30.063Z,93679.53
2019-05-25T03:36:59.814Z,93679.23
2019-05-25T03:39:31.312Z,93678.12
2019-05-25T03:42:01.133Z,93681.79
2019-05-25T03:44:30.911Z,93698.47
2019-05-25T03:47:00.673Z,93710.78
2019-05-25T03:49:30.371Z,93715.08
2019-05-25T03:52:00.188Z,93722.14
2019-05-25T03:54:29.993Z,93731.58
2019-05-25T03:56:59.721Z,93742.38
2019-05-25T03:59:30.597Z,93749.56
2019-05-25T04:02:00.352Z,93716.12
2019-05-25T04:04:30.084Z,93692.27
2019-05-25T04:07:00.024Z,93689.63
2019-05-25T04:09:29.806Z,93679.68
2019-05-25T04:11:59.555Z,93691.89
2019-05-25T04:14:29.284Z,93689.23
2019-05-25T04:16:59.404Z,93674.69
2019-05-25T04:19:29.179Z,93619.60
2019-05-25T04:21:58.927Z,93568.41
2019-05-25T04:24:28.726Z,93557.44
2019-05-25T04:26:58.469Z,93550.88
2019-05-25T04:29:28.191Z,93497.73
2019-05-25T04:31:57.884Z,93293.36
2019-05-25T04:34:30.593Z,92931.72
2019-05-25T04:37:00.367Z,92631.58
2019-05-25T04:39:30.109Z,92341.92
2019-05-25T04:41:59.770Z,92079.88
2019-05-25T04:44:29.572Z,91939.88
2019-05-25T04:46:59.337Z,92136.86
2019-05-25T04:49:29.100Z,92068.38
2019-05-25T04:51:58.866Z,91926.56
2019-05-25T04:54:28.667Z,91773.77
2019-05-25T04:56:58.727Z,91619.58
2019-05-25T04:59:29.093Z,91650.15
2019-05-25T05:01:58.861Z,91713.52
2019-05-25T05:04:30.630Z,91705.16
2019-05-25T05:07:04.241Z,91670.48
2019-05-25T05:09:33.955Z,91714.47
2019-05-25T05:12:03.836Z,91827.08
2019-05-25T05:14:34.480Z,91847.18
2019-05-25T05:17:04.262Z,91826.83
2019-05-25T05:19:34.048Z,91800.38
2019-05-25T05:22:05.998Z,91813.97
2019-05-25T05:24:35.260Z,91807.17
2019-05-25T05:27:05.048Z,91847.33
2019-05-25T05:29:34.812Z,91710.28
2019-05-25T05:32:07.085Z,91590.28
2019-05-25T05:34:36.667Z,91346.79
2019-05-25T05:37:06.543Z,91316.89
2019-05-25T05:39:36.352Z,91231.69
2019-05-25T05:42:07.548Z,91154.94
2019-05-25T05:44:38.899Z,91060.84
2019-05-25T05:47:10.611Z,91036.79
2019-05-25T05:49:41.034Z,90934.94
2019-05-25T05:52:12.255Z,90810.75
2019-05-25T05:54:44.285Z,90768.59
2019-05-25T05:57:14.074Z,90657.91
2019-05-25T05:59:49.743Z,90505.33
2019-05-25T06:02:19.534Z,90549.18
2019-05-25T06:04:49.714Z,90329.42
2019-05-25T06:07:19.358Z,90182.34
2019-05-25T06:09:49.191Z,90155.80
2019-05-25T06:12:19.074Z,89838.48
2019-05-25T06:14:48.902Z,89345.11
2019-05-25T06:17:18.722Z,88823.06
2019-05-25T06:19:48.460Z,88503.41
2019-05-25T06:22:18.263Z,86979.81
2019-05-25T06:24:48.135Z,86979.81
2019-05-25T06:27:26.956Z,86339.08
2019-05-25T06:29:49.423Z,85491.80
2019-05-25T06:32:19.241Z,85208.57
2019-05-25T06:34:48.932Z,85153.72
2019-05-25T06:37:18.720Z,85089.92
2019-05-25T06:39:48.426Z,84926.06
2019-05-25T06:42:18.193Z,84181.59
2019-05-25T06:44:48.017Z,83072.53
2019-05-25T06:47:17.786Z,82107.95
2019-05-25T06:49:47.734Z,81823.06
2019-05-25T06:52:17.477Z,81241.30
2019-05-25T06:54:50.465Z,80599.50
2019-05-25T06:57:20.343Z,79587.75
2019-05-25T06:59:50.091Z,78265.14
2019-05-25T07:02:22.678Z,77857.64
2019-05-25T07:04:52.454Z,77456.98
2019-05-25T07:07:22.225Z,76942.88
2019-05-25T07:09:51.982Z,76475.77
2019-05-25T07:12:21.796Z,75605.63
2019-05-25T07:14:56.260Z,74710.39
2019-05-25T07:17:26.009Z,73806.36
2019-05-25T07:19:55.804Z,72933.52
2019-05-25T07:22:25.642Z,72267.11
2019-05-25T07:24:55.367Z,72350.38
2019-05-25T07:27:25.112Z,72438.87
2019-05-25T07:29:54.756Z,72565.45
2019-05-25T07:32:24.630Z,72400.88
2019-05-25T07:34:54.642Z,72920.70
2019-05-25T07:37:24.424Z,73300.61
2019-05-25T07:39:54.244Z,73243.98
2019-05-25T07:42:24.030Z,73362.84
2019-05-25T07:44:54.975Z,73269.39
2019-05-25T07:47:24.747Z,72823.22
2019-05-25T07:49:54.546Z,72512.52
2019-05-25T07:52:24.287Z,71966.63
2019-05-25T07:54:54.126Z,72774.53
2019-05-25T07:57:23.950Z,72423.52
2019-05-25T07:59:53.709Z,71956.98
2019-05-25T08:02:23.509Z,71873.54
2019-05-25T08:04:53.396Z,71722.73
2019-05-25T08:07:23.208Z,70801.05
2019-05-25T08:09:53.486Z,72381.03
2019-05-25T08:12:23.344Z,72522.47
2019-05-25T08:14:53.420Z,72205.83
2019-05-25T08:17:23.097Z,71331.79
2019-05-25T08:19:55.756Z,70552.91
2019-05-25T08:22:25.539Z,70113.88
2019-05-25T08:24:56.537Z,70304.00
2019-05-25T08:27:28.560Z,70735.47
2019-05-25T08:29:59.178Z,71116.00
2019-05-25T08:32:28.883Z,71184.88
2019-05-25T08:34:58.565Z,71336.45
2019-05-25T08:37:28.483Z,71500.57
2019-05-25T08:39:58.385Z,71324.39
2019-05-25T08:42:28.265Z,72016.22
2019-05-25T08:44:58.074Z,71848.45
2019-05-25T08:47:27.794Z,72002.36
2019-05-25T08:49:57.643Z,71642.31
2019-05-25T08:52:27.379Z,71949.57
2019-05-25T08:54:58.091Z,72172.02
2019-05-25T08:57:27.704Z,72316.04
2019-05-25T08:59:57.475Z,71974.05
2019-05-25T09:02:27.367Z,71797.39
2019-05-25T09:04:56.993Z,72007.66
2019-05-25T09:07:26.860Z,71266.75
2019-05-25T09:09:59.324Z,71353.84
2019-05-25T09:12:29.158Z,71810.83
2019-05-25T09:14:59.035Z,72932.33
2019-05-25T09:17:28.815Z,73127.94
2019-05-25T09:19:58.656Z,72712.84
2019-05-25T09:22:28.377Z,72488.69
2019-05-25T09:24:58.127Z,72044.61
2019-05-25T09:27:27.975Z,72001.31
2019-05-25T09:29:57.710Z,72259.21
2019-05-25T09:32:27.467Z,72962.09
2019-05-25T09:34:57.267Z,73003.66
2019-05-25T09:37:27.026Z,72728.09
2019-05-25T09:39:56.794Z,72509.34
2019-05-25T09:42:27.291Z,71914.77
2019-05-25T09:44:57.100Z,72057.98
2019-05-25T09:47:27.051Z,72636.83
2019-05-25T09:49:56.869Z,73120.69
2019-05-25T09:52:26.633Z,72734.86
2019-05-25T09:54:56.310Z,72529.38
2019-05-25T09:57:26.083Z,72549.82
2019-05-25T09:59:55.826Z,72234.23
2019-05-25T10:02:25.648Z,71902.84
2019-05-25T10:04:55.409Z,71762.44
2019-05-25T10:07:26.789Z,71523.66
2019-05-25T10:09:58.904Z,72067.90
2019-05-25T10:12:28.606Z,72560.84
2019-05-25T10:14:58.486Z,71723.88
2019-05-25T10:17:28.244Z,71960.09
2019-05-25T10:19:58.051Z,72296.29
2019-05-25T10:22:27.858Z,72283.02
2019-05-25T10:25:01.888Z,72100.36
2019-05-25T10:27:34.170Z,72708.31
2019-05-25T10:30:03.196Z,72881.34
2019-05-25T10:32:32.966Z,74444.02
2019-05-25T10:35:02.701Z,73017.70
2019-05-25T10:37:35.907Z,73024.27
2019-05-25T10:40:10.735Z,73132.09
2019-05-25T10:42:44.189Z,72673.74
2019-05-25T10:45:14.174Z,72195.59
2019-05-25T10:47:43.928Z,71932.44
2019-05-25T10:50:14.616Z,71610.80
2019-05-25T10:52:47.637Z,72011.58
2019-05-25T10:55:18.343Z,72594.74
2019-05-25T10:57:48.078Z,73148.27
2019-05-25T11:00:18.264Z,73165.31
2019-05-25T11:02:48.549Z,73373.28
2019-05-25T11:05:21.340Z,73824.23
2019-05-25T11:07:51.026Z,73107.50
2019-05-25T11:10:21.661Z,72798.41
2019-05-25T11:12:51.586Z,72470.10
2019-05-25T11:15:22.946Z,72269.36
2019-05-25T11:17:52.704Z,71780.97
2019-05-25T11:20:22.508Z,72109.73
2019-05-25T11:22:52.285Z,72086.30
2019-05-25T11:25:22.047Z,72415.68
2019-05-25T11:27:51.925Z,72148.80
2019-05-25T11:30:21.783Z,72540.67
2019-05-25T11:32:51.545Z,72248.69
2019-05-25T11:35:21.411Z,71748.23
2019-05-25T11:37:51.078Z,72066.16
2019-05-25T11:40:24.105Z,71432.42
2019-05-25T11:42:53.836Z,71253.38
2019-05-25T11:45:23.841Z,71052.08
2019-05-25T11:47:53.613Z,70540.86
2019-05-25T11:50:26.179Z,70255.97
2019-05-25T11:52:55.986Z,70526.09
2019-05-25T11:55:25.826Z,70179.26
2019-05-25T11:57:55.591Z,69829.16
2019-05-25T12:00:26.043Z,70004.59
2019-05-25T12:02:55.990Z,70665.43
2019-05-25T12:05:25.795Z,70449.88
2019-05-25T12:07:55.595Z,70708.30
2019-05-25T12:10:25.257Z,71380.58
2019-05-25T12:12:55.049Z,72389.78
2019-05-25T12:15:25.166Z,73292.45
2019-05-25T12:17:54.999Z,74615.27
2019-05-25T12:20:29.187Z,75141.82
2019-05-25T12:22:58.891Z,75772.63
2019-05-25T12:25:29.598Z,75771.03
2019-05-25T12:27:59.284Z,76164.56
2019-05-25T12:30:40.353Z,76212.52
2019-05-25T12:33:03.549Z,76631.78
2019-05-25T12:35:33.199Z,76407.22
2019-05-25T12:38:02.997Z,76555.20
2019-05-25T12:40:32.737Z,76726.13
2019-05-25T12:43:02.477Z,76539.05
2019-05-25T12:45:32.278Z,76330.26
2019-05-25T12:48:02.054Z,76190.40
2019-05-25T12:50:31.856Z,75964.22
2019-05-25T12:53:01.620Z,76318.00
2019-05-25T12:55:31.452Z,76619.98
2019-05-25T12:58:01.098Z,77254.77
2019-05-25T13:00:31.337Z,77306.34
2019-05-25T13:03:01.104Z,76926.33
2019-05-25T13:05:34.530Z,77284.86
2019-05-25T13:08:03.094Z,77331.91
2019-05-25T13:10:35.505Z,77238.66
2019-05-25T13:13:05.594Z,77447.56
2019-05-25T13:15:35.293Z,77548.84
2019-05-25T13:18:05.099Z,77578.85
2019-05-25T13:20:35.742Z,77219.95
2019-05-25T13:23:05.687Z,77038.42
2019-05-25T13:25:35.422Z,77219.49
2019-05-25T13:28:05.195Z,77522.42
2019-05-25T13:30:35.095Z,77500.80
2019-05-25T13:33:05.027Z,77307.30
2019-05-25T13:35:34.826Z,76950.42
2019-05-25T13:38:04.566Z,76726.56
2019-05-25T13:40:34.314Z,77031.19
2019-05-25T13:43:04.083Z,77028.73
2019-05-25T13:45:34.245Z,77278.13
2019-05-25T13:48:04.008Z,77155.59
2019-05-25T13:50:33.858Z,77113.83
2019-05-25T13:53:03.636Z,76974.48
2019-05-25T13:55:33.438Z,76814.22
2019-05-25T13:58:03.244Z,76554.19
2019-05-25T14:00:33.041Z,76503.13
2019-05-25T14:03:03.376Z,76126.53
2019-05-25T14:05:33.222Z,75998.58
2019-05-25T14:08:04.992Z,76000.25
2019-05-25T14:10:35.489Z,76151.22
2019-05-25T14:13:05.374Z,76220.88
2019-05-25T14:15:35.259Z,76092.61
2019-05-25T14:18:05.038Z,76240.16
2019-05-25T14:20:34.789Z,76131.92
2019-05-25T14:23:07.664Z,76039.03
2019-05-25T14:25:38.194Z,76214.46
2019-05-25T14:28:07.967Z,76344.50
2019-05-25T14:30:37.761Z,76391.47
2019-05-25T14:33:07.580Z,76378.69
2019-05-25T14:35:39.567Z,76413.45
2019-05-25T14:38:09.497Z,76576.06
2019-05-25T14:40:40.932Z,76878.25
2019-05-25T14:43:10.615Z,77141.80
2019-05-25T14:45:40.386Z,77207.67
2019-05-25T14:48:11.710Z,77442.84
2019-05-25T14:50:42.444Z,77993.47
2019-05-25T14:53:12.237Z,78487.33
2019-05-25T14:55:42.371Z,78819.58
2019-05-25T14:58:13.003Z,79197.28
2019-05-25T15:00:42.869Z,79523.83
2019-05-25T15:03:12.646Z,79828.63
2019-05-25T15:05:42.337Z,80086.34
2019-05-25T15:08:14.581Z,80418.97
2019-05-25T15:10:44.303Z,80712.67
2019-05-25T15:13:13.981Z,81034.27
2019-05-25T15:15:46.230Z,81562.37
2019-05-25T15:18:15.847Z,83849.01
2019-05-25T15:20:49.617Z,82362.53
2019-05-25T15:23:19.519Z,82643.89
2019-05-25T15:25:49.257Z,83178.34
2019-05-25T15:28:19.026Z,83494.61
2019-05-25T15:30:48.858Z,83942.39
2019-05-25T15:33:18.770Z,84375.81
2019-05-25T15:35:49.098Z,84875.12
2019-05-25T15:38:18.887Z,85216.80
2019-05-25T15:40:48.683Z,85564.09
2019-05-25T15:43:18.404Z,85790.56
2019-05-25T15:45:48.257Z,86030.36
2019-05-25T15:48:18.075Z,86303.52
2019-05-25T15:50:47.826Z,86382.51
2019-05-25T15:53:17.604Z,86602.52
2019-05-25T15:55:47.372Z,86836.30
2019-05-25T15:58:17.179Z,87019.32
2019-05-25T16:00:51.765Z,87501.03
2019-05-25T16:03:21.729Z,87878.52
2019-05-25T16:05:51.489Z,87878.52
2019-05-25T16:08:21.368Z,87888.07
2019-05-25T16:10:51.077Z,88035.88
2019-05-25T16:13:20.854Z,88109.12
2019-05-25T16:15:50.672Z,88239.09
2019-05-25T16:18:20.426Z,88181.78
2019-05-25T16:20:50.196Z,88042.57
2019-05-25T16:23:19.978Z,88265.19
2019-05-25T16:25:49.810Z,88609.33
2019-05-25T16:28:19.534Z,88609.33
2019-05-25T16:30:49.338Z,88671.59
2019-05-25T16:33:19.098Z,88823.66
2019-05-25T16:35:48.843Z,88910.52
2019-05-25T16:38:19.148Z,88995.94
2019-05-25T16:40:48.903Z,89003.75
2019-05-25T16:43:18.698Z,88910.70
2019-05-25T16:45:48.467Z,88859.75
2019-05-25T16:48:19.258Z,88778.94
2019-05-25T16:50:50.662Z,88764.34
2019-05-25T16:53:21.546Z,88812.82
2019-05-25T16:55:54.539Z,88500.52
2019-05-25T16:58:22.890Z,88668.77
2019-05-25T17:00:52.940Z,88675.33
2019-05-25T17:03:28.175Z,88654.38
2019-05-25T17:05:58.153Z,88448.24
2019-05-25T17:08:27.866Z,88510.59
2019-05-25T17:10:58.257Z,88775.64
2019-05-25T17:13:28.216Z,88492.58
2019-05-25T17:15:57.948Z,88429.68
2019-05-25T17:18:27.769Z,88332.13
2019-05-25T17:20:57.516Z,88520.90
2019-05-25T17:23:27.294Z,88579.16
2019-05-25T17:25:57.134Z,88777.10
2019-05-25T17:28:26.875Z,88849.08
2019-05-25T17:30:56.588Z,88821.31
2019-05-25T17:33:26.380Z,88839.03
2019-05-25T17:35:56.160Z,88879.66
2019-05-25T17:38:25.933Z,88909.47
2019-05-25T17:40:57.015Z,88981.98
2019-05-25T17:43:27.317Z,89004.34
2019-05-25T17:45:57.078Z,88985.61
2019-05-25T17:48:26.878Z,89031.41
2019-05-25T17:50:56.700Z,88994.19
2019-05-25T17:53:26.955Z,88987.05
2019-05-25T17:55:56.787Z,89009.81
2019-05-25T17:58:26.609Z,89096.75
2019-05-25T18:00:58.789Z,89196.57
2019-05-25T18:03:28.874Z,89285.05
2019-05-25T18:05:58.754Z,89456.56
2019-05-25T18:08:28.535Z,89538.55
2019-05-25T18:11:01.824Z,89647.39
2019-05-25T18:13:31.711Z,89762.22
2019-05-25T18:16:01.438Z,89859.02
2019-05-25T18:18:33.709Z,89989.97
2019-05-25T18:21:17.409Z,90132.83
2019-05-25T18:23:48.257Z,90275.34
2019-05-25T18:26:19.357Z,90370.69
2019-05-25T18:28:49.956Z,90545.14
2019-05-25T18:31:19.737Z,90563.12
2019-05-25T18:33:49.815Z,90595.23
2019-05-25T18:36:19.635Z,90637.28
2019-05-25T18:38:49.524Z,90639.16
2019-05-25T18:41:19.435Z,90728.50
2019-05-25T18:43:49.448Z,90755.50
2019-05-25T18:46:21.555Z,90758.88
2019-05-25T18:48:53.437Z,90755.55
2019-05-25T18:51:23.243Z,90840.30
2019-05-25T18:53:55.476Z,90926.84
2019-05-25T18:56:25.363Z,90958.66
2019-05-25T18:58:57.343Z,91046.80
2019-05-25T19:01:28.283Z,91107.56
2019-05-25T19:04:00.002Z,91135.33
2019-05-25T19:06:29.995Z,91148.37
2019-05-25T19:09:00.746Z,91170.30
2019-05-25T19:14:22.508Z,91030.17
2019-05-25T19:16:53.548Z,91016.45
2019-05-25T19:19:25.498Z,91062.98
2019-05-25T19:21:55.399Z,91108.39
2019-05-25T19:24:25.645Z,91032.31
2019-05-25T19:26:55.468Z,91280.44
2019-05-25T19:29:28.456Z,91401.55
2019-05-25T19:31:58.313Z,91492.16
2019-05-25T19:34:28.200Z,91549.85
2019-05-25T19:37:03.666Z,91617.72
2019-05-25T19:39:29.382Z,91619.03
2019-05-25T19:41:59.560Z,91610.63
2019-05-25T19:47:20.145Z,91725.29
2019-05-25T19:49:50.378Z,91746.87
2019-05-25T19:52:20.094Z,91734.34
2019-05-25T19:54:50.298Z,91713.55
2019-05-25T19:57:21.230Z,91688.61
2019-05-25T19:59:51.522Z,91718.13
2019-05-25T20:02:21.303Z,91764.98
2019-05-25T20:04:51.512Z,91787.45
2019-05-25T20:07:21.783Z,91781.81
2019-05-25T20:09:52.781Z,91816.78
2019-05-25T20:12:22.617Z,91901.84
2019-05-25T20:14:53.658Z,91935.74
2019-05-25T20:17:25.916Z,91943.70
2019-05-25T20:19:57.809Z,91982.06
2019-05-25T20:22:27.702Z,91989.08
2019-05-25T20:24:57.591Z,92011.39
2019-05-25T20:27:27.346Z,92064.25
2019-05-25T20:29:57.765Z,92092.72
2019-05-25T20:32:31.085Z,92141.27
2019-05-25T20:35:00.889Z,92155.08
2019-05-25T20:37:30.566Z,92187.39
2019-05-25T20:40:01.172Z,92299.05
2019-05-25T20:42:32.046Z,92350.73
2019-05-25T20:45:02.985Z,92409.78
2019-05-25T20:47:32.686Z,92404.83
2019-05-25T20:50:02.901Z,92395.53
2019-05-25T20:52:33.042Z,92396.39
2019-05-25T20:55:05.169Z,92402.73
2019-05-25T20:57:36.303Z,92368.29
2019-05-25T21:00:07.305Z,92397.91
2019-05-25T21:02:38.702Z,92505.30
2019-05-25T21:05:08.709Z,92500.42
2019-05-25T21:07:38.295Z,92494.23
2019-05-25T21:10:08.949Z,92516.16
2019-05-25T21:12:38.730Z,92559.09
2019-05-25T21:15:09.034Z,92572.89
2019-05-25T21:17:38.836Z,92586.91
2019-05-25T21:20:08.855Z,92609.89
2019-05-25T21:22:39.383Z,92640.91
2019-05-25T21:25:11.753Z,92651.38
2019-05-25T21:27:41.532Z,92634.48
2019-05-25T21:30:13.055Z,92590.91
2019-05-25T21:32:43.312Z,92553.50
2019-05-25T21:35:13.154Z,92544.27
2019-05-25T21:37:44.994Z,92702.34
2019-05-25T21:40:16.336Z,92510.32
2019-05-25T21:42:45.905Z,92479.08
2019-05-25T21:45:16.389Z,92451.34
2019-05-25T21:47:46.326Z,92419.12
2019-05-25T21:50:16.334Z,92344.98
2019-05-25T21:52:46.023Z,92297.72
2019-05-25T21:55:15.754Z,92259.61
2019-05-25T21:57:45.554Z,92287.70
2019-05-25T22:00:17.162Z,92280.67
2019-05-25T22:02:47.012Z,92256.67
2019-05-25T22:05:17.075Z,92254.63
2019-05-25T22:07:46.813Z,92280.53
2019-05-25T22:10:16.634Z,92311.94
2019-05-25T22:12:46.374Z,92368.94
2019-05-25T22:15:16.152Z,92376.98
2019-05-25T22:17:45.750Z,92386.56
2019-05-25T22:20:17.192Z,92416.97
2019-05-25T22:22:46.914Z,92427.02
2019-05-25T22:25:16.797Z,92423.77
2019-05-25T22:27:46.566Z,92451.89
2019-05-25T22:30:16.441Z,92490.44
2019-05-25T22:32:47.084Z,92498.33
2019-05-25T22:35:16.864Z,92534.75
2019-05-25T22:37:47.428Z,92543.09
2019-05-25T22:40:17.488Z,92584.86
2019-05-25T22:42:47.248Z,92626.75
2019-05-25T22:45:16.976Z,92636.48
2019-05-25T22:47:46.645Z,92650.40
2019-05-25T22:50:16.399Z,92663.23
2019-05-25T22:52:46.166Z,92675.23
2019-05-25T22:55:15.816Z,92721.61
2019-05-25T22:57:45.582Z,92778.17
2019-05-25T23:00:16.029Z,92808.34
2019-05-25T23:02:45.806Z,92813.64
2019-05-25T23:05:15.679Z,92842.36
2019-05-25T23:07:48.740Z,92837.82
2019-05-25T23:10:18.667Z,92886.56
2019-05-25T23:12:48.447Z,92928.83
2019-05-25T23:15:18.927Z,92963.17
2019-05-25T23:17:50.671Z,92998.17
2019-05-25T23:20:21.227Z,93051.45
2019-05-25T23:22:51.026Z,93098.66
2019-05-25T23:25:21.518Z,93080.17
2019-05-25T23:27:51.535Z,93086.34
2019-05-25T23:30:22.973Z,93091.66
2019-05-25T23:32:52.552Z,93090.93
2019-05-25T23:35:22.302Z,93190.51
2019-05-25T23:37:52.088Z,93205.88
2019-05-25T23:40:22.303Z,93186.63
2019-05-25T23:42:52.073Z,93183.86
2019-05-25T23:45:21.887Z,93179.63
2019-05-25T23:47:51.573Z,93192.33
2019-05-25T23:50:21.429Z,93226.64
2019-05-25T23:52:51.320Z,93264.39
2019-05-25T23:55:21.092Z,93285.64
2019-05-25T23:57:50.836Z,93294.16
